Beringen, Belgium
Current Conditions -  °F | °C
As of 2:25 PM on Thursday 29 Jan 2015 (Local Time) from EBDT Reporting Station
Broken Clouds Broken Clouds  
Wind Chill: 33°   Ceiling: 2400
Heat Index: 41°   Visibility: 6mi
Dew Point: 34°   Wind: 15mph
Humidity: 76%   Direction: 220°SW
Pressure: 29.03"   Gusts: 31mph
Location:  51.05°N, 5.23°E
Report Text: EBDT 291325Z 22013G27KT 9999 FEW019 BKN024 05/01 Q0983 BLACKWHT WHT TEMPO GRN
Loading
Personal Weather Stations






























Interactive Weather Map New forecast layout! Learn more

10-Day Weather Forecast

Advertisements
Track Severe Weather on mobile